sensor_id;sensor_type;location;lat;lon;timestamp;P1;durP1;ratioP1;P2;durP2;ratioP2
68432;SDS011;55412;51.350;17.056;2024-03-23T00:55:55;23.20;;;9.17;;
68432;SDS011;55412;51.350;17.056;2024-03-23T00:58:20;25.33;;;9.65;;
68432;SDS011;55412;51.350;17.056;2024-03-23T01:00:46;22.98;;;9.38;;
68432;SDS011;55412;51.350;17.056;2024-03-23T01:03:12;24.03;;;10.03;;
68432;SDS011;55412;51.350;17.056;2024-03-23T01:05:38;26.63;;;10.50;;
68432;SDS011;55412;51.350;17.056;2024-03-23T01:08:04;25.07;;;10.13;;
68432;SDS011;55412;51.350;17.056;2024-03-23T01:10:29;28.52;;;12.45;;
68432;SDS011;55412;51.350;17.056;2024-03-23T01:12:55;26.35;;;11.85;;
68432;SDS011;55412;51.350;17.056;2024-03-23T01:15:21;26.87;;;11.47;;
68432;SDS011;55412;51.350;17.056;2024-03-23T01:17:47;30.85;;;12.38;;
68432;SDS011;55412;51.350;17.056;2024-03-23T01:20:12;26.47;;;12.20;;
68432;SDS011;55412;51.350;17.056;2024-03-23T01:22:38;33.37;;;12.07;;
68432;SDS011;55412;51.350;17.056;2024-03-23T01:25:04;28.90;;;13.03;;
68432;SDS011;55412;51.350;17.056;2024-03-23T01:27:30;29.23;;;12.80;;
68432;SDS011;55412;51.350;17.056;2024-03-23T01:29:55;30.47;;;11.37;;
68432;SDS011;55412;51.350;17.056;2024-03-23T01:32:21;22.13;;;9.18;;
68432;SDS011;55412;51.350;17.056;2024-03-23T01:34:47;24.90;;;10.73;;
68432;SDS011;55412;51.350;17.056;2024-03-23T01:37:12;28.33;;;10.30;;
68432;SDS011;55412;51.350;17.056;2024-03-23T01:39:38;24.35;;;9.82;;
68432;SDS011;55412;51.350;17.056;2024-03-23T01:42:04;23.40;;;9.17;;
68432;SDS011;55412;51.350;17.056;2024-03-23T01:44:29;23.00;;;10.18;;
68432;SDS011;55412;51.350;17.056;2024-03-23T01:46:55;22.35;;;9.88;;
68432;SDS011;55412;51.350;17.056;2024-03-23T01:49:21;28.10;;;11.93;;
68432;SDS011;55412;51.350;17.056;2024-03-23T01:51:46;26.33;;;9.38;;
68432;SDS011;55412;51.350;17.056;2024-03-23T01:54:12;25.00;;;10.20;;
68432;SDS011;55412;51.350;17.056;2024-03-23T01:56:38;27.10;;;9.80;;
68432;SDS011;55412;51.350;17.056;2024-03-23T01:59:05;30.90;;;10.33;;
68432;SDS011;55412;51.350;17.056;2024-03-23T02:01:31;26.70;;;9.88;;
68432;SDS011;55412;51.350;17.056;2024-03-23T02:03:58;27.00;;;11.10;;
68432;SDS011;55412;51.350;17.056;2024-03-23T02:06:23;25.63;;;9.90;;
68432;SDS011;55412;51.350;17.056;2024-03-23T02:08:50;25.77;;;10.47;;
68432;SDS011;55412;51.350;17.056;2024-03-23T02:11:16;23.08;;;10.05;;
68432;SDS011;55412;51.350;17.056;2024-03-23T02:13:42;25.95;;;9.95;;
68432;SDS011;55412;51.350;17.056;2024-03-23T02:16:07;24.50;;;9.63;;
68432;SDS011;55412;51.350;17.056;2024-03-23T02:18:33;23.92;;;9.77;;
68432;SDS011;55412;51.350;17.056;2024-03-23T02:21:00;24.33;;;9.95;;
68432;SDS011;55412;51.350;17.056;2024-03-23T02:23:26;22.40;;;10.07;;
68432;SDS011;55412;51.350;17.056;2024-03-23T02:25:52;25.80;;;10.70;;
68432;SDS011;55412;51.350;17.056;2024-03-23T02:28:20;26.40;;;11.13;;
68432;SDS011;55412;51.350;17.056;2024-03-23T02:30:48;24.52;;;10.32;;
68432;SDS011;55412;51.350;17.056;2024-03-23T02:33:14;25.65;;;9.52;;
68432;SDS011;55412;51.350;17.056;2024-03-23T02:35:42;27.02;;;10.70;;
68432;SDS011;55412;51.350;17.056;2024-03-23T02:38:09;24.52;;;9.65;;
68432;SDS011;55412;51.350;17.056;2024-03-23T02:40:34;28.07;;;11.23;;
68432;SDS011;55412;51.350;17.056;2024-03-23T02:43:02;19.75;;;8.30;;
68432;SDS011;55412;51.350;17.056;2024-03-23T02:45:28;25.20;;;8.85;;
68432;SDS011;55412;51.350;17.056;2024-03-23T02:47:54;23.80;;;9.30;;
68432;SDS011;55412;51.350;17.056;2024-03-23T02:50:19;23.30;;;9.75;;
68432;SDS011;55412;51.350;17.056;2024-03-23T02:52:45;28.77;;;11.43;;
68432;SDS011;55412;51.350;17.056;2024-03-23T02:55:11;27.50;;;11.82;;
68432;SDS011;55412;51.350;17.056;2024-03-23T02:57:37;26.95;;;11.80;;
68432;SDS011;55412;51.350;17.056;2024-03-23T03:00:03;31.43;;;12.30;;
68432;SDS011;55412;51.350;17.056;2024-03-23T03:02:33;26.38;;;12.68;;
68432;SDS011;55412;51.350;17.056;2024-03-23T03:05:02;23.70;;;10.15;;
68432;SDS011;55412;51.350;17.056;2024-03-23T03:07:30;28.95;;;12.00;;
68432;SDS011;55412;51.350;17.056;2024-03-23T03:09:56;28.23;;;11.40;;
68432;SDS011;55412;51.350;17.056;2024-03-23T03:12:22;30.80;;;12.33;;
68432;SDS011;55412;51.350;17.056;2024-03-23T03:14:48;27.95;;;12.20;;
68432;SDS011;55412;51.350;17.056;2024-03-23T03:17:14;29.47;;;11.93;;
68432;SDS011;55412;51.350;17.056;2024-03-23T03:19:40;30.00;;;12.45;;
68432;SDS011;55412;51.350;17.056;2024-03-23T03:22:05;33.17;;;12.52;;
68432;SDS011;55412;51.350;17.056;2024-03-23T03:24:31;32.03;;;12.70;;
68432;SDS011;55412;51.350;17.056;2024-03-23T03:26:58;29.60;;;11.33;;
68432;SDS011;55412;51.350;17.056;2024-03-23T03:29:23;26.48;;;12.00;;
68432;SDS011;55412;51.350;17.056;2024-03-23T03:31:49;29.90;;;11.33;;
68432;SDS011;55412;51.350;17.056;2024-03-23T03:34:16;26.98;;;10.70;;
68432;SDS011;55412;51.350;17.056;2024-03-23T03:36:45;31.65;;;10.60;;
68432;SDS011;55412;51.350;17.056;2024-03-23T03:39:11;27.17;;;10.75;;
68432;SDS011;55412;51.350;17.056;2024-03-23T03:41:37;31.52;;;12.27;;
68432;SDS011;55412;51.350;17.056;2024-03-23T03:44:03;27.07;;;11.33;;
68432;SDS011;55412;51.350;17.056;2024-03-23T03:46:29;26.10;;;9.27;;
68432;SDS011;55412;51.350;17.056;2024-03-23T03:48:55;24.17;;;9.57;;
68432;SDS011;55412;51.350;17.056;2024-03-23T03:51:20;20.38;;;9.57;;
68432;SDS011;55412;51.350;17.056;2024-03-23T03:53:46;22.80;;;9.87;;
68432;SDS011;55412;51.350;17.056;2024-03-23T03:56:12;23.75;;;9.10;;
68432;SDS011;55412;51.350;17.056;2024-03-23T03:58:38;21.17;;;9.17;;
68432;SDS011;55412;51.350;17.056;2024-03-23T04:01:03;24.65;;;9.27;;
68432;SDS011;55412;51.350;17.056;2024-03-23T04:03:29;22.90;;;9.73;;
68432;SDS011;55412;51.350;17.056;2024-03-23T04:05:54;21.80;;;9.20;;
68432;SDS011;55412;51.350;17.056;2024-03-23T04:08:21;22.77;;;8.90;;
68432;SDS011;55412;51.350;17.056;2024-03-23T04:10:46;22.92;;;9.80;;
68432;SDS011;55412;51.350;17.056;2024-03-23T04:13:16;20.05;;;8.30;;
68432;SDS011;55412;51.350;17.056;2024-03-23T04:15:41;23.47;;;9.30;;
68432;SDS011;55412;51.350;17.056;2024-03-23T04:18:08;23.20;;;9.07;;
68432;SDS011;55412;51.350;17.056;2024-03-23T04:20:33;20.63;;;8.15;;
68432;SDS011;55412;51.350;17.056;2024-03-23T04:22:59;25.17;;;8.57;;
68432;SDS011;55412;51.350;17.056;2024-03-23T04:25:25;24.15;;;9.35;;
68432;SDS011;55412;51.350;17.056;2024-03-23T04:27:51;20.45;;;8.23;;
68432;SDS011;55412;51.350;17.056;2024-03-23T04:30:17;20.13;;;8.13;;
68432;SDS011;55412;51.350;17.056;2024-03-23T04:32:43;17.95;;;7.75;;
68432;SDS011;55412;51.350;17.056;2024-03-23T04:35:08;19.67;;;8.03;;
68432;SDS011;55412;51.350;17.056;2024-03-23T04:37:35;21.70;;;9.10;;
68432;SDS011;55412;51.350;17.056;2024-03-23T04:40:01;18.77;;;8.48;;
68432;SDS011;55412;51.350;17.056;2024-03-23T04:42:28;17.30;;;7.30;;
68432;SDS011;55412;51.350;17.056;2024-03-23T04:44:54;20.80;;;8.70;;
68432;SDS011;55412;51.350;17.056;2024-03-23T04:47:20;19.53;;;8.20;;
68432;SDS011;55412;51.350;17.056;2024-03-23T04:49:46;21.38;;;8.45;;
68432;SDS011;55412;51.350;17.056;2024-03-23T04:52:11;22.00;;;8.93;;
68432;SDS011;55412;51.350;17.056;2024-03-23T04:54:37;22.23;;;9.30;;
68432;SDS011;55412;51.350;17.056;2024-03-23T04:57:05;20.05;;;8.77;;
68432;SDS011;55412;51.350;17.056;2024-03-23T04:59:31;20.47;;;9.03;;
68432;SDS011;55412;51.350;17.056;2024-03-23T05:01:57;23.38;;;9.82;;
68432;SDS011;55412;51.350;17.056;2024-03-23T05:04:23;21.15;;;8.45;;
68432;SDS011;55412;51.350;17.056;2024-03-23T05:06:48;19.67;;;8.37;;
68432;SDS011;55412;51.350;17.056;2024-03-23T05:09:14;20.30;;;8.13;;
68432;SDS011;55412;51.350;17.056;2024-03-23T05:11:40;23.27;;;9.53;;
68432;SDS011;55412;51.350;17.056;2024-03-23T05:14:07;21.67;;;8.50;;
68432;SDS011;55412;51.350;17.056;2024-03-23T05:16:32;19.43;;;9.40;;
68432;SDS011;55412;51.350;17.056;2024-03-23T05:18:58;23.00;;;9.27;;
68432;SDS011;55412;51.350;17.056;2024-03-23T05:21:24;21.50;;;9.40;;
68432;SDS011;55412;51.350;17.056;2024-03-23T05:23:50;20.37;;;9.07;;
68432;SDS011;55412;51.350;17.056;2024-03-23T05:26:16;23.98;;;9.05;;
68432;SDS011;55412;51.350;17.056;2024-03-23T05:28:42;27.17;;;9.38;;
68432;SDS011;55412;51.350;17.056;2024-03-23T05:31:08;21.10;;;9.13;;
68432;SDS011;55412;51.350;17.056;2024-03-23T05:33:37;22.00;;;8.43;;
68432;SDS011;55412;51.350;17.056;2024-03-23T05:36:03;19.70;;;9.20;;
68432;SDS011;55412;51.350;17.056;2024-03-23T05:38:29;23.75;;;8.90;;
68432;SDS011;55412;51.350;17.056;2024-03-23T05:40:55;20.27;;;9.18;;
68432;SDS011;55412;51.350;17.056;2024-03-23T05:43:25;20.17;;;8.53;;
68432;SDS011;55412;51.350;17.056;2024-03-23T05:45:58;22.08;;;9.40;;
68432;SDS011;55412;51.350;17.056;2024-03-23T05:48:28;23.95;;;10.02;;
68432;SDS011;55412;51.350;17.056;2024-03-23T05:50:55;23.58;;;8.80;;
68432;SDS011;55412;51.350;17.056;2024-03-23T05:53:22;20.25;;;8.43;;
68432;SDS011;55412;51.350;17.056;2024-03-23T05:55:49;21.93;;;8.50;;
68432;SDS011;55412;51.350;17.056;2024-03-23T05:58:18;21.45;;;8.98;;
68432;SDS011;55412;51.350;17.056;2024-03-23T06:00:45;22.33;;;9.30;;
68432;SDS011;55412;51.350;17.056;2024-03-23T06:03:11;23.00;;;9.73;;
68432;SDS011;55412;51.350;17.056;2024-03-23T06:05:37;22.33;;;8.97;;
68432;SDS011;55412;51.350;17.056;2024-03-23T06:08:04;26.17;;;9.77;;
68432;SDS011;55412;51.350;17.056;2024-03-23T06:10:30;25.70;;;9.75;;
68432;SDS011;55412;51.350;17.056;2024-03-23T06:12:56;20.17;;;9.63;;
68432;SDS011;55412;51.350;17.056;2024-03-23T06:15:23;22.75;;;10.13;;
68432;SDS011;55412;51.350;17.056;2024-03-23T06:17:49;21.13;;;9.13;;
68432;SDS011;55412;51.350;17.056;2024-03-23T06:20:15;22.58;;;10.07;;
68432;SDS011;55412;51.350;17.056;2024-03-23T06:22:41;21.45;;;9.40;;
68432;SDS011;55412;51.350;17.056;2024-03-23T06:25:07;18.87;;;8.63;;
68432;SDS011;55412;51.350;17.056;2024-03-23T06:27:33;20.17;;;9.18;;
68432;SDS011;55412;51.350;17.056;2024-03-23T06:29:59;21.90;;;9.80;;
68432;SDS011;55412;51.350;17.056;2024-03-23T06:32:25;23.08;;;9.63;;
68432;SDS011;55412;51.350;17.056;2024-03-23T06:34:51;27.30;;;9.75;;
68432;SDS011;55412;51.350;17.056;2024-03-23T06:37:16;22.10;;;9.13;;
68432;SDS011;55412;51.350;17.056;2024-03-23T06:39:42;23.33;;;9.93;;
68432;SDS011;55412;51.350;17.056;2024-03-23T06:42:08;24.13;;;9.85;;
68432;SDS011;55412;51.350;17.056;2024-03-23T06:44:34;20.87;;;9.80;;
68432;SDS011;55412;51.350;17.056;2024-03-23T06:46:59;20.83;;;9.85;;
68432;SDS011;55412;51.350;17.056;2024-03-23T06:49:25;24.00;;;10.27;;
68432;SDS011;55412;51.350;17.056;2024-03-23T06:51:51;23.70;;;9.02;;
68432;SDS011;55412;51.350;17.056;2024-03-23T06:54:17;24.20;;;10.00;;
68432;SDS011;55412;51.350;17.056;2024-03-23T06:56:44;20.80;;;10.77;;
68432;SDS011;55412;51.350;17.056;2024-03-23T06:59:10;25.77;;;11.95;;
68432;SDS011;55412;51.350;17.056;2024-03-23T07:01:36;19.30;;;9.25;;
68432;SDS011;55412;51.350;17.056;2024-03-23T07:04:02;22.13;;;10.57;;
68432;SDS011;55412;51.350;17.056;2024-03-23T07:06:29;21.50;;;9.82;;
68432;SDS011;55412;51.350;17.056;2024-03-23T07:08:58;21.70;;;9.18;;
68432;SDS011;55412;51.350;17.056;2024-03-23T07:11:24;22.93;;;9.30;;
68432;SDS011;55412;51.350;17.056;2024-03-23T07:13:50;18.13;;;9.27;;
68432;SDS011;55412;51.350;17.056;2024-03-23T07:16:19;20.00;;;8.38;;
68432;SDS011;55412;51.350;17.056;2024-03-23T07:18:45;19.37;;;9.60;;
68432;SDS011;55412;51.350;17.056;2024-03-23T07:21:11;22.00;;;9.85;;
68432;SDS011;55412;51.350;17.056;2024-03-23T07:23:37;23.05;;;9.23;;
68432;SDS011;55412;51.350;17.056;2024-03-23T07:26:03;21.47;;;10.30;;
68432;SDS011;55412;51.350;17.056;2024-03-23T07:28:31;22.85;;;10.10;;
68432;SDS011;55412;51.350;17.056;2024-03-23T07:31:16;22.65;;;11.60;;
68432;SDS011;55412;51.350;17.056;2024-03-23T07:33:43;19.17;;;8.50;;
68432;SDS011;55412;51.350;17.056;2024-03-23T07:36:10;18.95;;;8.82;;
68432;SDS011;55412;51.350;17.056;2024-03-23T07:38:36;18.57;;;8.93;;
68432;SDS011;55412;51.350;17.056;2024-03-23T07:41:05;20.35;;;8.82;;
68432;SDS011;55412;51.350;17.056;2024-03-23T07:43:32;21.70;;;9.25;;
68432;SDS011;55412;51.350;17.056;2024-03-23T07:45:58;21.85;;;10.98;;
68432;SDS011;55412;51.350;17.056;2024-03-23T07:48:24;22.70;;;10.77;;
68432;SDS011;55412;51.350;17.056;2024-03-23T07:51:00;19.25;;;9.73;;
68432;SDS011;55412;51.350;17.056;2024-03-23T07:53:26;20.45;;;8.82;;
68432;SDS011;55412;51.350;17.056;2024-03-23T07:55:56;19.52;;;9.00;;
68432;SDS011;55412;51.350;17.056;2024-03-23T07:58:23;17.37;;;8.43;;
68432;SDS011;55412;51.350;17.056;2024-03-23T08:00:49;18.17;;;8.75;;
68432;SDS011;55412;51.350;17.056;2024-03-23T08:03:15;20.27;;;9.65;;
68432;SDS011;55412;51.350;17.056;2024-03-23T08:05:41;24.05;;;10.43;;
68432;SDS011;55412;51.350;17.056;2024-03-23T08:08:07;18.37;;;9.63;;
68432;SDS011;55412;51.350;17.056;2024-03-23T08:10:32;19.27;;;9.93;;
68432;SDS011;55412;51.350;17.056;2024-03-23T08:12:58;22.57;;;9.47;;
68432;SDS011;55412;51.350;17.056;2024-03-23T08:15:24;18.52;;;8.82;;
68432;SDS011;55412;51.350;17.056;2024-03-23T08:17:50;16.97;;;8.57;;
68432;SDS011;55412;51.350;17.056;2024-03-23T08:20:16;21.83;;;8.73;;
68432;SDS011;55412;51.350;17.056;2024-03-23T08:22:41;19.13;;;9.23;;
68432;SDS011;55412;51.350;17.056;2024-03-23T08:25:07;18.08;;;9.00;;
68432;SDS011;55412;51.350;17.056;2024-03-23T08:27:33;16.23;;;8.13;;
68432;SDS011;55412;51.350;17.056;2024-03-23T08:29:58;17.35;;;8.43;;
68432;SDS011;55412;51.350;17.056;2024-03-23T08:32:24;13.77;;;7.80;;
68432;SDS011;55412;51.350;17.056;2024-03-23T08:34:50;17.73;;;8.77;;
68432;SDS011;55412;51.350;17.056;2024-03-23T08:37:16;16.43;;;9.13;;
68432;SDS011;55412;51.350;17.056;2024-03-23T08:39:44;17.08;;;8.35;;
68432;SDS011;55412;51.350;17.056;2024-03-23T08:42:10;17.88;;;9.23;;
68432;SDS011;55412;51.350;17.056;2024-03-23T08:44:35;15.50;;;8.73;;
68432;SDS011;55412;51.350;17.056;2024-03-23T08:47:01;16.33;;;8.77;;
68432;SDS011;55412;51.350;17.056;2024-03-23T08:49:27;18.30;;;9.17;;
68432;SDS011;55412;51.350;17.056;2024-03-23T08:51:53;17.48;;;8.93;;
68432;SDS011;55412;51.350;17.056;2024-03-23T08:54:19;15.27;;;8.30;;
68432;SDS011;55412;51.350;17.056;2024-03-23T08:56:47;18.17;;;8.80;;
68432;SDS011;55412;51.350;17.056;2024-03-23T08:59:13;16.73;;;8.30;;
68432;SDS011;55412;51.350;17.056;2024-03-23T09:01:38;15.67;;;8.70;;
68432;SDS011;55412;51.350;17.056;2024-03-23T09:04:04;16.83;;;8.35;;
68432;SDS011;55412;51.350;17.056;2024-03-23T09:06:30;16.90;;;8.93;;
68432;SDS011;55412;51.350;17.056;2024-03-23T09:08:56;17.13;;;8.43;;
68432;SDS011;55412;51.350;17.056;2024-03-23T09:11:21;16.38;;;8.00;;
68432;SDS011;55412;51.350;17.056;2024-03-23T09:13:47;18.07;;;8.40;;
68432;SDS011;55412;51.350;17.056;2024-03-23T09:16:13;15.02;;;8.60;;
68432;SDS011;55412;51.350;17.056;2024-03-23T09:18:38;13.83;;;7.53;;
68432;SDS011;55412;51.350;17.056;2024-03-23T09:21:06;15.20;;;8.77;;
68432;SDS011;55412;51.350;17.056;2024-03-23T09:23:36;14.83;;;7.97;;
68432;SDS011;55412;51.350;17.056;2024-03-23T09:26:05;17.15;;;8.43;;
68432;SDS011;55412;51.350;17.056;2024-03-23T09:28:32;15.50;;;7.88;;
68432;SDS011;55412;51.350;17.056;2024-03-23T09:31:02;17.00;;;7.27;;
68432;SDS011;55412;51.350;17.056;2024-03-23T09:33:28;16.48;;;7.45;;
68432;SDS011;55412;51.350;17.056;2024-03-23T09:35:54;18.17;;;7.80;;
68432;SDS011;55412;51.350;17.056;2024-03-23T09:38:21;15.63;;;7.47;;
68432;SDS011;55412;51.350;17.056;2024-03-23T09:40:52;14.68;;;7.45;;
68432;SDS011;55412;51.350;17.056;2024-03-23T09:43:18;15.90;;;7.27;;
68432;SDS011;55412;51.350;17.056;2024-03-23T09:45:45;18.73;;;8.20;;
68432;SDS011;55412;51.350;17.056;2024-03-23T09:48:11;14.48;;;8.02;;
68432;SDS011;55412;51.350;17.056;2024-03-23T09:53:07;16.05;;;7.80;;
68432;SDS011;55412;51.350;17.056;2024-03-23T09:55:34;17.57;;;8.00;;
68432;SDS011;55412;51.350;17.056;2024-03-23T09:58:03;14.23;;;7.07;;
68432;SDS011;55412;51.350;17.056;2024-03-23T10:00:33;15.82;;;7.80;;
68432;SDS011;55412;51.350;17.056;2024-03-23T10:03:02;13.82;;;6.80;;
68432;SDS011;55412;51.350;17.056;2024-03-23T10:05:28;14.40;;;7.90;;
68432;SDS011;55412;51.350;17.056;2024-03-23T10:07:56;15.38;;;7.72;;
68432;SDS011;55412;51.350;17.056;2024-03-23T10:10:22;13.95;;;7.35;;
68432;SDS011;55412;51.350;17.056;2024-03-23T10:12:50;14.50;;;7.68;;
68432;SDS011;55412;51.350;17.056;2024-03-23T10:15:20;14.57;;;7.20;;
68432;SDS011;55412;51.350;17.056;2024-03-23T10:17:48;15.05;;;6.53;;
68432;SDS011;55412;51.350;17.056;2024-03-23T10:20:19;17.20;;;7.90;;
68432;SDS011;55412;51.350;17.056;2024-03-23T10:22:49;16.95;;;7.65;;
68432;SDS011;55412;51.350;17.056;2024-03-23T10:25:16;17.38;;;7.90;;
68432;SDS011;55412;51.350;17.056;2024-03-23T10:27:42;13.83;;;8.17;;
68432;SDS011;55412;51.350;17.056;2024-03-23T10:30:14;16.05;;;7.65;;
68432;SDS011;55412;51.350;17.056;2024-03-23T10:32:41;20.63;;;8.77;;
68432;SDS011;55412;51.350;17.056;2024-03-23T10:35:19;16.17;;;8.05;;
68432;SDS011;55412;51.350;17.056;2024-03-23T10:37:48;15.43;;;7.70;;
68432;SDS011;55412;51.350;17.056;2024-03-23T10:40:17;17.10;;;8.48;;
68432;SDS011;55412;51.350;17.056;2024-03-23T10:42:43;18.48;;;8.77;;
68432;SDS011;55412;51.350;17.056;2024-03-23T10:45:10;18.30;;;8.77;;
68432;SDS011;55412;51.350;17.056;2024-03-23T10:47:36;17.97;;;9.20;;
68432;SDS011;55412;51.350;17.056;2024-03-23T10:50:03;16.42;;;8.50;;
68432;SDS011;55412;51.350;17.056;2024-03-23T10:52:31;14.73;;;7.90;;
68432;SDS011;55412;51.350;17.056;2024-03-23T10:55:04;13.23;;;7.13;;
68432;SDS011;55412;51.350;17.056;2024-03-23T10:57:38;16.23;;;7.78;;
68432;SDS011;55412;51.350;17.056;2024-03-23T11:00:07;15.73;;;7.27;;
68432;SDS011;55412;51.350;17.056;2024-03-23T11:02:35;14.73;;;6.97;;
68432;SDS011;55412;51.350;17.056;2024-03-23T11:05:01;15.10;;;7.93;;
68432;SDS011;55412;51.350;17.056;2024-03-23T11:09:54;13.23;;;6.80;;
68432;SDS011;55412;51.350;17.056;2024-03-23T11:17:37;14.75;;;7.10;;
68432;SDS011;55412;51.350;17.056;2024-03-23T11:20:04;13.25;;;6.70;;
68432;SDS011;55412;51.350;17.056;2024-03-23T11:22:52;13.90;;;6.77;;
68432;SDS011;55412;51.350;17.056;2024-03-23T11:25:21;13.38;;;6.97;;
68432;SDS011;55412;51.350;17.056;2024-03-23T11:27:54;15.13;;;7.30;;
68432;SDS011;55412;51.350;17.056;2024-03-23T11:30:25;13.23;;;6.95;;
68432;SDS011;55412;51.350;17.056;2024-03-23T11:32:56;16.75;;;8.10;;
68432;SDS011;55412;51.350;17.056;2024-03-23T11:38:09;12.23;;;7.32;;
68432;SDS011;55412;51.350;17.056;2024-03-23T11:40:43;16.45;;;7.38;;
68432;SDS011;55412;51.350;17.056;2024-03-23T11:43:11;12.25;;;6.70;;
68432;SDS011;55412;51.350;17.056;2024-03-23T11:45:47;20.00;;;7.60;;
68432;SDS011;55412;51.350;17.056;2024-03-23T11:48:18;11.90;;;7.00;;
68432;SDS011;55412;51.350;17.056;2024-03-23T11:50:46;16.05;;;7.90;;
68432;SDS011;55412;51.350;17.056;2024-03-23T11:53:20;13.88;;;7.18;;
68432;SDS011;55412;51.350;17.056;2024-03-23T11:55:56;15.57;;;7.93;;
68432;SDS011;55412;51.350;17.056;2024-03-23T11:58:23;11.75;;;6.65;;
68432;SDS011;55412;51.350;17.056;2024-03-23T12:00:51;12.47;;;7.40;;
68432;SDS011;55412;51.350;17.056;2024-03-23T12:03:24;15.18;;;7.43;;
68432;SDS011;55412;51.350;17.056;2024-03-23T12:06:00;12.93;;;6.55;;
68432;SDS011;55412;51.350;17.056;2024-03-23T12:08:31;12.95;;;6.70;;
68432;SDS011;55412;51.350;17.056;2024-03-23T12:11:04;14.95;;;7.07;;
68432;SDS011;55412;51.350;17.056;2024-03-23T12:13:36;15.70;;;7.40;;
68432;SDS011;55412;51.350;17.056;2024-03-23T12:16:20;13.27;;;6.40;;
68432;SDS011;55412;51.350;17.056;2024-03-23T12:18:49;14.07;;;6.95;;
68432;SDS011;55412;51.350;17.056;2024-03-23T12:21:18;16.42;;;7.45;;
68432;SDS011;55412;51.350;17.056;2024-03-23T12:23:44;14.35;;;6.38;;
68432;SDS011;55412;51.350;17.056;2024-03-23T12:26:12;12.63;;;5.97;;
68432;SDS011;55412;51.350;17.056;2024-03-23T12:28:38;10.63;;;5.88;;
68432;SDS011;55412;51.350;17.056;2024-03-23T12:31:04;9.00;;;4.97;;
68432;SDS011;55412;51.350;17.056;2024-03-23T12:33:30;9.02;;;4.35;;
68432;SDS011;55412;51.350;17.056;2024-03-23T12:35:56;10.20;;;5.13;;
68432;SDS011;55412;51.350;17.056;2024-03-23T12:38:22;7.18;;;3.85;;
68432;SDS011;55412;51.350;17.056;2024-03-23T12:40:48;10.33;;;4.40;;
68432;SDS011;55412;51.350;17.056;2024-03-23T12:43:14;10.57;;;4.95;;
68432;SDS011;55412;51.350;17.056;2024-03-23T12:45:40;10.68;;;5.45;;
68432;SDS011;55412;51.350;17.056;2024-03-23T12:48:06;11.07;;;6.70;;
68432;SDS011;55412;51.350;17.056;2024-03-23T12:50:32;11.38;;;5.70;;
68432;SDS011;55412;51.350;17.056;2024-03-23T12:52:58;11.47;;;6.17;;
68432;SDS011;55412;51.350;17.056;2024-03-23T12:55:24;9.98;;;5.78;;
68432;SDS011;55412;51.350;17.056;2024-03-23T12:57:49;8.40;;;4.50;;
68432;SDS011;55412;51.350;17.056;2024-03-23T13:00:15;7.38;;;3.88;;
68432;SDS011;55412;51.350;17.056;2024-03-23T13:02:42;7.67;;;3.57;;
68432;SDS011;55412;51.350;17.056;2024-03-23T13:05:08;7.15;;;3.78;;
68432;SDS011;55412;51.350;17.056;2024-03-23T13:07:34;6.97;;;3.08;;
68432;SDS011;55412;51.350;17.056;2024-03-23T13:10:00;6.63;;;2.20;;
68432;SDS011;55412;51.350;17.056;2024-03-23T13:12:26;7.53;;;3.30;;
68432;SDS011;55412;51.350;17.056;2024-03-23T13:14:51;5.22;;;2.28;;
68432;SDS011;55412;51.350;17.056;2024-03-23T13:17:17;9.60;;;2.27;;
68432;SDS011;55412;51.350;17.056;2024-03-23T13:19:43;7.63;;;3.08;;
68432;SDS011;55412;51.350;17.056;2024-03-23T13:22:09;6.83;;;2.77;;
68432;SDS011;55412;51.350;17.056;2024-03-23T13:24:36;8.20;;;3.25;;
68432;SDS011;55412;51.350;17.056;2024-03-23T13:27:03;7.13;;;3.03;;
68432;SDS011;55412;51.350;17.056;2024-03-23T13:29:33;6.10;;;2.35;;
68432;SDS011;55412;51.350;17.056;2024-03-23T13:32:05;5.80;;;2.43;;
68432;SDS011;55412;51.350;17.056;2024-03-23T13:34:32;6.75;;;2.80;;
68432;SDS011;55412;51.350;17.056;2024-03-23T13:37:01;6.40;;;2.30;;
68432;SDS011;55412;51.350;17.056;2024-03-23T13:39:27;6.35;;;2.42;;
68432;SDS011;55412;51.350;17.056;2024-03-23T13:41:53;5.03;;;1.83;;
68432;SDS011;55412;51.350;17.056;2024-03-23T13:44:20;7.40;;;1.70;;
68432;SDS011;55412;51.350;17.056;2024-03-23T13:46:46;4.90;;;1.63;;
68432;SDS011;55412;51.350;17.056;2024-03-23T13:51:51;5.30;;;1.25;;
68432;SDS011;55412;51.350;17.056;2024-03-23T13:54:17;4.72;;;1.00;;
68432;SDS011;55412;51.350;17.056;2024-03-23T13:56:43;3.53;;;1.07;;
68432;SDS011;55412;51.350;17.056;2024-03-23T13:59:09;6.13;;;1.42;;
68432;SDS011;55412;51.350;17.056;2024-03-23T14:01:35;4.53;;;1.20;;
68432;SDS011;55412;51.350;17.056;2024-03-23T14:04:01;2.60;;;0.50;;
68432;SDS011;55412;51.350;17.056;2024-03-23T14:06:27;3.63;;;1.17;;
68432;SDS011;55412;51.350;17.056;2024-03-23T14:08:52;3.90;;;1.10;;
68432;SDS011;55412;51.350;17.056;2024-03-23T14:11:18;3.85;;;1.27;;
68432;SDS011;55412;51.350;17.056;2024-03-23T14:13:44;4.68;;;1.90;;
68432;SDS011;55412;51.350;17.056;2024-03-23T14:16:10;6.22;;;2.10;;
68432;SDS011;55412;51.350;17.056;2024-03-23T14:18:36;2.13;;;0.40;;
68432;SDS011;55412;51.350;17.056;2024-03-23T14:21:02;2.03;;;0.30;;
68432;SDS011;55412;51.350;17.056;2024-03-23T14:23:29;1.35;;;0.20;;
68432;SDS011;55412;51.350;17.056;2024-03-23T14:25:59;1.87;;;0.20;;
68432;SDS011;55412;51.350;17.056;2024-03-23T14:28:25;1.27;;;0.10;;
68432;SDS011;55412;51.350;17.056;2024-03-23T14:30:54;2.13;;;0.20;;
68432;SDS011;55412;51.350;17.056;2024-03-23T14:33:21;1.38;;;0.20;;
68432;SDS011;55412;51.350;17.056;2024-03-23T14:35:53;1.30;;;0.20;;
68432;SDS011;55412;51.350;17.056;2024-03-23T14:38:20;1.77;;;0.10;;
68432;SDS011;55412;51.350;17.056;2024-03-23T14:40:46;1.73;;;0.20;;
68432;SDS011;55412;51.350;17.056;2024-03-23T14:43:12;1.02;;;0.10;;
68432;SDS011;55412;51.350;17.056;2024-03-23T14:48:38;5.75;;;0.22;;
68432;SDS011;55412;51.350;17.056;2024-03-23T14:51:05;3.50;;;0.50;;
68432;SDS011;55412;51.350;17.056;2024-03-23T14:53:37;2.50;;;0.50;;
68432;SDS011;55412;51.350;17.056;2024-03-23T14:56:05;2.75;;;0.60;;
68432;SDS011;55412;51.350;17.056;2024-03-23T14:58:31;2.00;;;0.40;;
68432;SDS011;55412;51.350;17.056;2024-03-23T15:01:00;3.67;;;0.70;;
68432;SDS011;55412;51.350;17.056;2024-03-23T15:03:39;2.88;;;0.82;;
68432;SDS011;55412;51.350;17.056;2024-03-23T15:06:05;3.20;;;0.90;;
68432;SDS011;55412;51.350;17.056;2024-03-23T15:08:31;4.30;;;0.93;;
68432;SDS011;55412;51.350;17.056;2024-03-23T15:11:01;4.20;;;1.00;;
68432;SDS011;55412;51.350;17.056;2024-03-23T15:13:36;3.85;;;1.00;;
68432;SDS011;55412;51.350;17.056;2024-03-23T15:16:03;3.13;;;0.70;;
68432;SDS011;55412;51.350;17.056;2024-03-23T15:18:30;3.20;;;0.85;;
68432;SDS011;55412;51.350;17.056;2024-03-23T15:20:57;2.60;;;0.70;;
68432;SDS011;55412;51.350;17.056;2024-03-23T15:23:27;2.97;;;0.70;;
68432;SDS011;55412;51.350;17.056;2024-03-23T15:25:56;4.05;;;0.75;;
68432;SDS011;55412;51.350;17.056;2024-03-23T15:28:23;3.38;;;1.05;;
68432;SDS011;55412;51.350;17.056;2024-03-23T15:30:51;3.53;;;0.50;;
68432;SDS011;55412;51.350;17.056;2024-03-23T15:33:17;2.83;;;0.80;;